Huvudsida
METAR-TAF:

METAR-TAF

Flygplatser :

Halli Airport

Jämsä, Finland

latitud: 61-51N, longitud: 024-48E, höjd: 143 m

Aktuellt väderrapport

Denna rapport gjordes för 31 minuter sedan, klockan 22:50 UTC
Vind 9 kt från syd
Temperatur 0°C
Fuktighet 69%
Tryck 1021 hPa
Sikt 10 km eller mer
Inga moln under 1 500 m eller inga cumulonimbus

METAR: EFHA 222250Z AUTO 17009KT CAVOK 00/M05 Q1021

Tid: 01:21 (23:21 UTC)

Väderprognos

Denna rapport gjordes för 11 timmar och 45 minuter sedan, klockan 11:36 UTC
Prognos gäller från 22 kl. 12 UTC till 22 kl. 14 UTC
Vind 14 kt från nordväst
Sikt 10 km eller mer
Inga moln under 1 500 m eller inga cumulonimbus
Sannolikhet 30% :
Temporärt
från 22 kl. 12 UTC till 22 kl. 14 UTC
Vind 16 kt från väst/nordväst i byarna ända upp till 26 kt

TAF: EFHA 221136Z 2212/2214 31014KT CAVOK PROB30 TEMPO 2212/2214 30016G26KT

Aktuella väderrapporter och prognoser från 4000 flygplatser (METAR- och TAF-rapporter).

De tillgängliga stationerna syns som gula och röda prickar på kartan.

För musen över prickarna för att se namnen på stationerna.

Klicka sedan för att få väderrapporter och prognoser.

För att ändra kartan: Klicka på de gröna knapparna med ett svart kors på för att zooma in; den gröna knappen med ett streck på för att zooma ut; eller på de gröna pilarna för angränsande kartor.


METAR-TAF: